Terminal Aerodrome Forecast
Issued by NWS Lake Charles, LA

Home | Current Version | Previous Version | Text Only | Print | Product List | Glossary On
Versions: 1 2 3 4 5 6 7 8 9 10 11 12 13 14 15 16 17
000
FTUS44 KLCH 201731
TAFAEX
TAF
KAEX 201731Z 2018/2118 20005KT P6SM VCSH FEW010 SCT030 BKN040
      TEMPO 2020/2023 5SM TSRA BKN010 OVC017CB
     FM210000 VRB04KT P6SM SCT250
     FM210900 14002KT 4SM BR FEW011 SCT250
      TEMPO 2111/2113 1SM BR BKN007
     FM211500 16003KT P6SM BKN025=

USA.gov is the U.S. government's official web portal to all federal, state and local government web resources and services.